Time;durP1;ratioP1;P1;durP2;ratioP2;P2;SDS_P1;SDS_P2;PMS_P1;PMS_P2;Temp;Humidity;BMP_temperature;BMP_pressure;BME280_temperature;BME280_humidity;BME280_pressure;Samples;Min_cycle;Max_cycle;Signal;HPM_P1;HPM_P2
2023/01/13 00:04:30;;;;;;;1.45;0.35;;;;;;;;;;10443529;28;20128;-77
2023/01/13 00:09:33;;;;;;;1.65;0.45;;;;;;;;;;10436896;28;20029;-75
2023/01/13 00:14:36;;;;;;;0.50;0.47;;;;;;;;;;10440672;28;20056;-76
2023/01/13 00:19:39;;;;;;;2.85;0.40;;;;;;;;;;10438624;28;20445;-74
2023/01/13 00:24:42;;;;;;;0.47;0.28;;;;;;;;;;10440912;28;20509;-76
2023/01/13 00:29:45;;;;;;;0.47;0.32;;;;;;;;;;10440300;28;20483;-75
2023/01/13 00:34:48;;;;;;;0.77;0.47;;;;;;;;;;10441013;28;20041;-75
2023/01/13 00:39:51;;;;;;;1.48;0.40;;;;;;;;;;10440751;28;20037;-75
2023/01/13 00:44:55;;;;;;;0.65;0.30;;;;;;;;;;10444272;28;20498;-77
2023/01/13 00:49:58;;;;;;;0.68;0.30;;;;;;;;;;10439824;28;20048;-76
2023/01/13 00:55:01;;;;;;;1.42;0.30;;;;;;;;;;10455878;28;20041;-77
2023/01/13 01:00:05;;;;;;;1.27;0.43;;;;;;;;;;10441772;28;20502;-75
2023/01/13 01:05:07;;;;;;;;;;;;;;;;;;10438908;28;20379;-74
2023/01/13 01:10:11;;;;;;;1.35;0.28;;;;;;;;;;10434621;28;20040;-74
2023/01/13 01:15:15;;;;;;;1.50;0.38;;;;;;;;;;10442719;28;20053;-75
2023/01/13 01:20:17;;;;;;;0.30;0.25;;;;;;;;;;10438714;28;20131;-76
2023/01/13 01:25:20;;;;;;;0.15;0.08;;;;;;;;;;10435389;28;20808;-75
2023/01/13 01:30:24;;;;;;;0.55;0.40;;;;;;;;;;10438223;28;20040;-74
2023/01/13 01:35:27;;;;;;;0.65;0.30;;;;;;;;;;10441398;28;20072;-75
2023/01/13 01:40:29;;;;;;;0.30;0.20;;;;;;;;;;10439339;28;20048;-76
2023/01/13 01:45:33;;;;;;;0.40;0.20;;;;;;;;;;10436473;28;20041;-76
2023/01/13 01:50:37;;;;;;;2.78;0.38;;;;;;;;;;10437110;28;20242;-78
2023/01/13 01:55:40;;;;;;;0.13;0.13;;;;;;;;;;10434831;28;20158;-75
2023/01/13 02:00:44;;;;;;;0.10;0.10;;;;;;;;;;10436595;28;20083;-75
2023/01/13 02:05:46;;;;;;;0.63;0.10;;;;;;;;;;10436323;28;20048;-77
2023/01/13 02:10:52;;;;;;;1.10;0.47;;;;;;;;;;10433748;28;20689;-75
2023/01/13 02:15:58;;;;;;;0.40;0.20;;;;;;;;;;10437927;28;20094;-75
2023/01/13 02:21:12;;;;;;;4.30;0.43;;;;;;;;;;10434134;28;20347;-74
2023/01/13 02:26:31;;;;;;;2.63;0.13;;;;;;;;;;10429978;28;20044;-75
2023/01/13 02:31:43;;;;;;;0.20;0.20;;;;;;;;;;10440547;28;20045;-76
2023/01/13 02:36:50;;;;;;;0.47;0.20;;;;;;;;;;10432020;28;20048;-75
2023/01/13 02:47:18;;;;;;;1.85;0.35;;;;;;;;;;10436637;28;20144;-76
2023/01/13 02:52:22;;;;;;;0.10;0.10;;;;;;;;;;10434850;28;20379;-76
2023/01/13 02:57:26;;;;;;;1.10;0.20;;;;;;;;;;10434546;28;20164;-74
2023/01/13 03:02:30;;;;;;;0.10;0.10;;;;;;;;;;10431284;28;20073;-75
2023/01/13 03:07:33;;;;;;;;;;;;;;;;;;10432469;28;20056;-75
2023/01/13 03:12:38;;;;;;;0.17;0.10;;;;;;;;;;10436756;28;19925;-74
2023/01/13 03:17:43;;;;;;;0.80;0.15;;;;;;;;;;10444926;28;20049;-75
2023/01/13 03:22:52;;;;;;;0.85;0.20;;;;;;;;;;10441001;28;20044;-74
2023/01/13 03:27:57;;;;;;;2.38;0.30;;;;;;;;;;10445725;28;20041;-74
2023/01/13 03:33:02;;;;;;;0.73;0.30;;;;;;;;;;10445388;28;20147;-75
2023/01/13 03:38:07;;;;;;;0.75;0.20;;;;;;;;;;10432189;28;20128;-74
2023/01/13 03:48:37;;;;;;;0.37;0.30;;;;;;;;;;10445539;28;20045;-75
2023/01/13 03:53:43;;;;;;;0.30;0.20;;;;;;;;;;10446351;28;20127;-74
2023/01/13 03:58:47;;;;;;;0.30;0.20;;;;;;;;;;10437343;28;20558;-75
2023/01/13 04:03:54;;;;;;;0.55;0.20;;;;;;;;;;10440897;28;20124;-75
2023/01/13 04:09:00;;;;;;;0.10;0.10;;;;;;;;;;10439471;28;20479;-75
2023/01/13 04:14:04;;;;;;;0.22;0.20;;;;;;;;;;10443226;28;20048;-75
2023/01/13 04:19:08;;;;;;;1.48;0.20;;;;;;;;;;10439579;28;20506;-75
2023/01/13 04:24:10;;;;;;;;;;;;;;;;;;10438430;28;20414;-74
2023/01/13 04:29:13;;;;;;;0.43;0.30;;;;;;;;;;10446401;28;19990;-75
2023/01/13 04:34:18;;;;;;;0.30;0.30;;;;;;;;;;10443428;28;20037;-77
2023/01/13 04:39:21;;;;;;;1.33;0.05;;;;;;;;;;10446806;28;20041;-74
2023/01/13 04:44:23;;;;;;;1.23;0.17;;;;;;;;;;10441492;28;20052;-74
2023/01/13 04:49:27;;;;;;;0.10;0.10;;;;;;;;;;10442196;28;20390;-74
2023/01/13 04:54:30;;;;;;;0.80;0.20;;;;;;;;;;10438116;28;20064;-74
2023/01/13 04:59:33;;;;;;;1.02;0.30;;;;;;;;;;10439065;28;20063;-75
2023/01/13 05:04:37;;;;;;;0.73;0.17;;;;;;;;;;10438880;28;20525;-74
2023/01/13 05:09:40;;;;;;;1.20;0.35;;;;;;;;;;10437464;28;20044;-75
2023/01/13 05:20:04;;;;;;;0.10;0.10;;;;;;;;;;10442134;28;20041;-74
2023/01/13 05:25:24;;;;;;;0.47;0.30;;;;;;;;;;10453726;28;20045;-74
2023/01/13 05:30:28;;;;;;;1.05;0.40;;;;;;;;;;10442131;28;20048;-74
2023/01/13 05:35:32;;;;;;;1.63;0.30;;;;;;;;;;10435039;28;20478;-74
2023/01/13 05:45:57;;;;;;;2.17;0.30;;;;;;;;;;10434256;28;20066;-75
2023/01/13 05:51:01;;;;;;;0.57;0.30;;;;;;;;;;10439991;28;20491;-77
2023/01/13 05:56:05;;;;;;;0.10;0.10;;;;;;;;;;10437204;28;20044;-76
2023/01/13 06:01:10;;;;;;;1.87;0.53;;;;;;;;;;10428576;28;20045;-75
2023/01/13 06:06:14;;;;;;;0.85;0.57;;;;;;;;;;10434462;28;20486;-75
2023/01/13 06:11:17;;;;;;;0.10;0.10;;;;;;;;;;10429946;28;20041;-76
2023/01/13 06:16:19;;;;;;;3.58;0.40;;;;;;;;;;10435356;28;20074;-76
2023/01/13 06:21:23;;;;;;;0.45;0.30;;;;;;;;;;10431377;28;20048;-77
2023/01/13 06:26:26;;;;;;;;;;;;;;;;;;10438528;28;20063;-75
2023/01/13 06:31:29;;;;;;;0.38;0.30;;;;;;;;;;10423175;28;19933;-75
2023/01/13 06:36:37;;;;;;;0.90;0.40;;;;;;;;;;10435839;28;20418;-74
2023/01/13 06:47:00;;;;;;;1.77;0.20;;;;;;;;;;10438850;28;20037;-74
2023/01/13 06:52:04;;;;;;;0.77;0.40;;;;;;;;;;10432994;28;20048;-74
2023/01/13 06:57:07;;;;;;;;;;;;;;;;;;10438471;28;20124;-74
2023/01/13 07:02:09;;;;;;;1.17;0.30;;;;;;;;;;10435418;28;19920;-74
2023/01/13 07:07:13;;;;;;;0.47;0.30;;;;;;;;;;10433815;28;20077;-74
2023/01/13 07:12:16;;;;;;;0.98;0.38;;;;;;;;;;10435903;28;20098;-75
2023/01/13 07:17:23;;;;;;;1.15;0.30;;;;;;;;;;10437884;28;20523;-75
2023/01/13 07:22:27;;;;;;;1.10;0.40;;;;;;;;;;10440824;28;20514;-75
2023/01/13 07:27:30;;;;;;;2.90;0.43;;;;;;;;;;10428906;28;20049;-76
2023/01/13 07:32:33;;;;;;;0.77;0.20;;;;;;;;;;10440461;28;20099;-76
2023/01/13 07:37:38;;;;;;;0.53;0.50;;;;;;;;;;10438596;28;20502;-77
2023/01/13 07:48:00;;;;;;;2.53;0.50;;;;;;;;;;10431335;28;20043;-76
2023/01/13 07:53:04;;;;;;;1.73;0.40;;;;;;;;;;10433979;28;20457;-75
2023/01/13 07:58:08;;;;;;;0.90;0.30;;;;;;;;;;10435391;28;20520;-76
2023/01/13 08:03:10;;;;;;;0.10;0.10;;;;;;;;;;10437036;28;20478;-75
2023/01/13 08:08:15;;;;;;;0.55;0.40;;;;;;;;;;10439575;28;20037;-74
2023/01/13 08:13:18;;;;;;;2.50;0.77;;;;;;;;;;10443226;28;20044;-74
2023/01/13 08:18:21;;;;;;;0.35;0.35;;;;;;;;;;10439761;28;20052;-75
2023/01/13 08:23:25;;;;;;;0.93;0.20;;;;;;;;;;10440662;28;20120;-74
2023/01/13 08:28:29;;;;;;;0.35;0.30;;;;;;;;;;10436667;28;20384;-75
2023/01/13 08:33:32;;;;;;;0.70;0.22;;;;;;;;;;10439571;28;20132;-74
2023/01/13 08:38:36;;;;;;;1.80;0.38;;;;;;;;;;10439692;28;20052;-75
2023/01/13 08:43:39;;;;;;;0.68;0.30;;;;;;;;;;10434015;28;20060;-75
2023/01/13 08:48:41;;;;;;;0.60;0.47;;;;;;;;;;10439601;28;20059;-75
2023/01/13 08:53:45;;;;;;;0.88;0.35;;;;;;;;;;10444855;28;20040;-76
2023/01/13 08:58:49;;;;;;;0.85;0.20;;;;;;;;;;10441816;28;20094;-75
2023/01/13 09:03:51;;;;;;;0.63;0.45;;;;;;;;;;10441432;28;20045;-76
2023/01/13 09:08:55;;;;;;;0.57;0.50;;;;;;;;;;10439168;28;20267;-75
2023/01/13 09:13:59;;;;;;;0.95;0.75;;;;;;;;;;10437740;28;20037;-76
2023/01/13 09:19:04;;;;;;;1.90;0.70;;;;;;;;;;10440018;28;20040;-76
2023/01/13 09:24:08;;;;;;;1.08;0.32;;;;;;;;;;10438056;28;20060;-77
2023/01/13 09:29:11;;;;;;;0.73;0.40;;;;;;;;;;10441013;28;20538;-76
2023/01/13 09:39:36;;;;;;;0.50;0.30;;;;;;;;;;10442223;28;20048;-75
2023/01/13 09:44:43;;;;;;;0.88;0.50;;;;;;;;;;10437453;28;20435;-77
2023/01/13 09:49:45;;;;;;;0.60;0.50;;;;;;;;;;10437135;28;20049;-76
2023/01/13 09:54:52;;;;;;;1.58;0.50;;;;;;;;;;10439267;28;20040;-75
2023/01/13 09:59:54;;;;;;;1.80;0.43;;;;;;;;;;10439720;28;20037;-76
2023/01/13 10:05:11;;;;;;;0.30;0.20;;;;;;;;;;10437415;28;20052;-75
2023/01/13 10:10:18;;;;;;;0.50;0.50;;;;;;;;;;10437448;28;20092;-76
2023/01/13 10:15:22;;;;;;;0.50;0.50;;;;;;;;;;10438116;28;20486;-77
2023/01/13 10:20:28;;;;;;;1.70;0.73;;;;;;;;;;10435953;28;20050;-77
2023/01/13 10:25:41;;;;;;;1.17;0.52;;;;;;;;;;10436160;28;20045;-76
2023/01/13 10:30:44;;;;;;;1.95;0.77;;;;;;;;;;10435182;28;20469;-76
2023/01/13 10:35:55;;;;;;;1.30;1.20;;;;;;;;;;10435715;28;20080;-76
2023/01/13 10:41:00;;;;;;;2.00;1.00;;;;;;;;;;10437287;28;20106;-77
2023/01/13 10:46:03;;;;;;;1.30;1.20;;;;;;;;;;10435772;28;20055;-77
2023/01/13 10:51:10;;;;;;;0.85;0.85;;;;;;;;;;10432651;28;20045;-76
2023/01/13 10:56:18;;;;;;;1.00;0.70;;;;;;;;;;10433970;28;20049;-78
2023/01/13 11:01:24;;;;;;;1.20;1.20;;;;;;;;;;10432990;28;20048;-77
2023/01/13 11:06:28;;;;;;;2.75;1.20;;;;;;;;;;10434918;28;20746;-77
2023/01/13 11:11:42;;;;;;;1.27;0.40;;;;;;;;;;10447142;28;20502;-77
2023/01/13 11:16:48;;;;;;;0.95;0.30;;;;;;;;;;10436249;28;21250;-77
2023/01/13 11:21:58;;;;;;;0.38;0.28;;;;;;;;;;10430018;28;20126;-76
2023/01/13 11:27:05;;;;;;;0.40;0.30;;;;;;;;;;10440171;28;20088;-76
2023/01/13 11:32:11;;;;;;;0.22;0.22;;;;;;;;;;10428318;28;20037;-76
2023/01/13 11:37:18;;;;;;;0.25;0.25;;;;;;;;;;10437008;28;20042;-77
2023/01/13 11:42:24;;;;;;;0.55;0.38;;;;;;;;;;10437828;28;20049;-77
2023/01/13 11:47:27;;;;;;;0.73;0.38;;;;;;;;;;10438800;28;20068;-76
2023/01/13 11:52:40;;;;;;;0.45;0.43;;;;;;;;;;10440758;28;20040;-76
2023/01/13 11:57:52;;;;;;;0.50;0.50;;;;;;;;;;10440445;28;20477;-78
2023/01/13 12:02:58;;;;;;;0.40;0.40;;;;;;;;;;10445409;28;20039;-76
2023/01/13 12:08:09;;;;;;;1.17;0.50;;;;;;;;;;10439941;28;20049;-76
2023/01/13 12:13:20;;;;;;;0.75;0.63;;;;;;;;;;10439889;28;20086;-75
2023/01/13 12:18:47;;;;;;;0.77;0.43;;;;;;;;;;10435314;28;20056;-76
2023/01/13 12:24:03;;;;;;;0.35;0.30;;;;;;;;;;10438265;28;20518;-77
2023/01/13 12:29:11;;;;;;;1.73;0.30;;;;;;;;;;10441446;28;20149;-76
2023/01/13 12:34:24;;;;;;;0.60;0.40;;;;;;;;;;10440164;28;20029;-76
2023/01/13 12:39:31;;;;;;;0.52;0.28;;;;;;;;;;10438153;28;20056;-76
2023/01/13 12:44:35;;;;;;;1.58;0.65;;;;;;;;;;10447115;28;20310;-76
2023/01/13 12:49:37;;;;;;;;;;;;;;;;;;10441419;28;20044;-75
2023/01/13 12:54:59;;;;;;;0.57;0.40;;;;;;;;;;10437006;28;19925;-76
2023/01/13 13:00:16;;;;;;;1.17;0.32;;;;;;;;;;10438378;28;20029;-77
2023/01/13 13:05:39;;;;;;;0.50;0.30;;;;;;;;;;10435534;28;20177;-76
2023/01/13 13:10:45;;;;;;;0.28;0.28;;;;;;;;;;10438054;28;20159;-76
2023/01/13 13:15:49;;;;;;;0.98;0.50;;;;;;;;;;10441358;28;20455;-76
2023/01/13 13:20:53;;;;;;;1.25;0.47;;;;;;;;;;10442733;28;20072;-76
2023/01/13 13:26:01;;;;;;;1.15;0.47;;;;;;;;;;10439954;28;20057;-76
2023/01/13 13:31:11;;;;;;;1.20;1.20;;;;;;;;;;10439591;28;20052;-76
2023/01/13 13:36:21;;;;;;;0.45;0.45;;;;;;;;;;10440024;28;20052;-75
2023/01/13 13:46:49;;;;;;;0.90;0.63;;;;;;;;;;10409025;28;20045;-77
2023/01/13 13:51:56;;;;;;;0.93;0.40;;;;;;;;;;10434765;28;20044;-76
2023/01/13 13:56:59;;;;;;;0.50;0.50;;;;;;;;;;10435143;28;20112;-77
2023/01/13 14:02:03;;;;;;;1.87;0.60;;;;;;;;;;10438086;28;20398;-76
2023/01/13 14:07:16;;;;;;;0.35;0.30;;;;;;;;;;10443380;28;20041;-76
2023/01/13 14:12:20;;;;;;;1.73;0.30;;;;;;;;;;10443748;28;20509;-75
2023/01/13 14:17:25;;;;;;;2.10;0.30;;;;;;;;;;10433260;28;20096;-77
2023/01/13 14:22:28;;;;;;;0.85;0.20;;;;;;;;;;10434252;28;20156;-76
2023/01/13 14:27:31;;;;;;;0.13;0.13;;;;;;;;;;10433858;28;20107;-76
2023/01/13 14:32:36;;;;;;;0.38;0.30;;;;;;;;;;10438394;28;20041;-76
2023/01/13 14:37:39;;;;;;;0.30;0.30;;;;;;;;;;10434615;28;20124;-77
2023/01/13 14:42:42;;;;;;;0.10;0.10;;;;;;;;;;10442464;28;20198;-75
2023/01/13 14:47:51;;;;;;;3.38;0.68;;;;;;;;;;10446187;28;20461;-76
2023/01/13 14:52:55;;;;;;;1.00;0.30;;;;;;;;;;10437141;28;20033;-76
2023/01/13 14:58:17;;;;;;;0.20;0.20;;;;;;;;;;10440254;28;20036;-75
2023/01/13 15:03:21;;;;;;;1.65;0.45;;;;;;;;;;10447263;28;20041;-76
2023/01/13 15:08:37;;;;;;;0.65;0.40;;;;;;;;;;10441117;28;20036;-76
2023/01/13 15:13:42;;;;;;;0.75;0.28;;;;;;;;;;10448859;28;20056;-77
2023/01/13 15:18:56;;;;;;;2.13;0.22;;;;;;;;;;10451563;28;20045;-76
2023/01/13 15:23:58;;;;;;;0.20;0.10;;;;;;;;;;10447599;28;20433;-76
2023/01/13 15:29:04;;;;;;;1.65;0.45;;;;;;;;;;10441711;28;20042;-77
2023/01/13 15:34:08;;;;;;;1.45;0.50;;;;;;;;;;10448038;28;20431;-76
2023/01/13 15:39:11;;;;;;;3.13;0.40;;;;;;;;;;10451445;28;20053;-76
2023/01/13 15:49:38;;;;;;;1.83;0.75;;;;;;;;;;10438143;28;20059;-74
2023/01/13 15:54:41;;;;;;;1.08;0.63;;;;;;;;;;10440128;28;20040;-77
2023/01/13 15:59:44;;;;;;;1.40;0.98;;;;;;;;;;10445732;28;20072;-75
2023/01/13 16:04:49;;;;;;;0.70;0.40;;;;;;;;;;10440528;28;20067;-76
2023/01/13 16:09:52;;;;;;;3.60;0.80;;;;;;;;;;10444936;28;20088;-76
2023/01/13 16:14:55;;;;;;;1.33;0.45;;;;;;;;;;10443764;28;20032;-75
2023/01/13 16:19:59;;;;;;;2.15;0.82;;;;;;;;;;10442895;28;20071;-76
2023/01/13 16:25:02;;;;;;;0.63;0.55;;;;;;;;;;10440237;28;20049;-76
2023/01/13 16:30:05;;;;;;;2.70;0.70;;;;;;;;;;10441169;28;20050;-75
2023/01/13 16:35:09;;;;;;;0.80;0.57;;;;;;;;;;10445254;28;20040;-76
2023/01/13 16:40:17;;;;;;;1.95;0.70;;;;;;;;;;10450392;28;20381;-76
2023/01/13 16:45:20;;;;;;;2.90;0.90;;;;;;;;;;10440779;28;20037;-75
2023/01/13 16:50:30;;;;;;;4.38;1.25;;;;;;;;;;10439013;28;20043;-75
2023/01/13 16:55:33;;;;;;;1.38;0.50;;;;;;;;;;10439655;28;20136;-76
2023/01/13 17:00:36;;;;;;;0.73;0.40;;;;;;;;;;10438248;28;20037;-75
2023/01/13 17:05:41;;;;;;;2.55;1.00;;;;;;;;;;10440793;28;20045;-75
2023/01/13 17:10:44;;;;;;;2.22;0.60;;;;;;;;;;10438019;28;20037;-75
2023/01/13 17:15:47;;;;;;;2.00;0.95;;;;;;;;;;10439784;28;20056;-75
2023/01/13 17:20:51;;;;;;;1.58;0.80;;;;;;;;;;10432176;28;20081;-75
2023/01/13 17:25:53;;;;;;;3.88;1.63;;;;;;;;;;10434144;28;20136;-75
2023/01/13 17:30:56;;;;;;;1.88;0.95;;;;;;;;;;10439210;28;20179;-76
2023/01/13 17:36:01;;;;;;;4.30;1.73;;;;;;;;;;10434097;28;20098;-76
2023/01/13 17:41:04;;;;;;;1.80;0.77;;;;;;;;;;10437503;28;20122;-77
2023/01/13 17:46:07;;;;;;;2.95;1.65;;;;;;;;;;10439163;28;20453;-76
2023/01/13 17:51:13;;;;;;;3.77;1.63;;;;;;;;;;10437010;28;20083;-75
2023/01/13 17:56:17;;;;;;;8.18;3.95;;;;;;;;;;10439743;28;20060;-76
2023/01/13 18:01:19;;;;;;;;;;;;;;;;;;10432281;28;20164;-76
2023/01/13 18:06:24;;;;;;;5.22;2.15;;;;;;;;;;10434537;28;20460;-78
2023/01/13 18:11:27;;;;;;;1.75;0.65;;;;;;;;;;10440934;28;20099;-75
2023/01/13 18:16:30;;;;;;;0.95;0.60;;;;;;;;;;10444311;28;20041;-76
2023/01/13 18:32:15;;;;;;;1.65;0.90;;;;;;;;;;10438060;28;20151;-76
2023/01/13 18:37:19;;;;;;;1.20;0.70;;;;;;;;;;10438274;28;20564;-76
2023/01/13 18:47:41;;;;;;;1.55;0.70;;;;;;;;;;10443068;28;20499;-76
2023/01/13 18:52:45;;;;;;;2.88;0.80;;;;;;;;;;10436797;28;20132;-75
2023/01/13 18:57:49;;;;;;;0.88;0.73;;;;;;;;;;10435091;28;20041;-75
2023/01/13 19:02:53;;;;;;;3.65;0.88;;;;;;;;;;10443054;28;20044;-75
2023/01/13 19:08:08;;;;;;;1.35;0.52;;;;;;;;;;10444838;28;20376;-75
2023/01/13 19:13:14;;;;;;;3.08;0.70;;;;;;;;;;10439838;28;20041;-76
2023/01/13 19:18:20;;;;;;;2.92;0.93;;;;;;;;;;10440766;28;20529;-77
2023/01/13 19:23:24;;;;;;;7.03;0.60;;;;;;;;;;10442398;28;20490;-75
2023/01/13 19:28:27;;;;;;;2.33;0.68;;;;;;;;;;10443989;28;20041;-78
2023/01/13 19:33:31;;;;;;;1.48;0.77;;;;;;;;;;10439930;28;20048;-77
2023/01/13 19:38:35;;;;;;;1.80;0.70;;;;;;;;;;10443920;28;20056;-76
2023/01/13 19:48:57;;;;;;;1.08;0.80;;;;;;;;;;10436649;28;20403;-77
2023/01/13 19:54:01;;;;;;;1.10;0.60;;;;;;;;;;10438922;28;20037;-77
2023/01/13 19:59:04;;;;;;;0.65;0.20;;;;;;;;;;10446352;28;20099;-75
2023/01/13 20:04:13;;;;;;;1.15;0.60;;;;;;;;;;10443271;28;20150;-75
2023/01/13 20:09:17;;;;;;;0.52;0.40;;;;;;;;;;10446567;28;20124;-78
2023/01/13 20:14:20;;;;;;;1.58;0.70;;;;;;;;;;10445944;28;20430;-75
2023/01/13 20:19:23;;;;;;;0.47;0.40;;;;;;;;;;10448910;28;20072;-74
2023/01/13 20:24:27;;;;;;;5.38;0.60;;;;;;;;;;10446115;28;20060;-76
2023/01/13 20:29:30;;;;;;;;;;;;;;;;;;10446223;28;20044;-74
2023/01/13 20:34:32;;;;;;;2.55;0.47;;;;;;;;;;10443112;28;20305;-76
2023/01/13 20:39:38;;;;;;;0.10;0.10;;;;;;;;;;10443983;28;20060;-75
2023/01/13 20:44:43;;;;;;;0.32;0.20;;;;;;;;;;10448976;28;20041;-74
2023/01/13 20:49:45;;;;;;;;;;;;;;;;;;10447364;28;21400;-75
2023/01/13 20:54:49;;;;;;;0.28;0.22;;;;;;;;;;10441885;28;19944;-75
2023/01/13 20:59:52;;;;;;;;;;;;;;;;;;10438642;28;20033;-76
2023/01/13 21:04:55;;;;;;;1.45;0.35;;;;;;;;;;10441767;28;19925;-76
2023/01/13 21:09:59;;;;;;;0.50;0.30;;;;;;;;;;10447510;28;20059;-76
2023/01/13 21:15:18;;;;;;;0.47;0.43;;;;;;;;;;10447474;28;20080;-77
2023/01/13 21:20:21;;;;;;;0.82;0.30;;;;;;;;;;10447347;28;20049;-77
2023/01/13 21:25:25;;;;;;;0.57;0.30;;;;;;;;;;10447736;28;20104;-75
2023/01/13 21:30:28;;;;;;;0.60;0.32;;;;;;;;;;10447823;28;20406;-75
2023/01/13 21:35:30;;;;;;;0.38;0.20;;;;;;;;;;10444977;28;20052;-76
2023/01/13 21:40:34;;;;;;;0.32;0.28;;;;;;;;;;10446599;28;20503;-75
2023/01/13 21:50:59;;;;;;;1.23;0.68;;;;;;;;;;10437180;28;20102;-75
2023/01/13 21:56:04;;;;;;;2.22;0.50;;;;;;;;;;10443516;28;20033;-75
2023/01/13 22:01:08;;;;;;;;;;;;;;;;;;10445576;28;20048;-75
2023/01/13 22:06:10;;;;;;;0.47;0.10;;;;;;;;;;10462918;28;20331;-77
2023/01/13 22:11:15;;;;;;;2.00;0.38;;;;;;;;;;10445152;28;20494;-75
2023/01/13 22:16:19;;;;;;;0.63;0.30;;;;;;;;;;10428235;28;20057;-74
2023/01/13 22:21:22;;;;;;;1.20;0.80;;;;;;;;;;10442423;28;20503;-75
2023/01/13 22:26:26;;;;;;;0.20;0.10;;;;;;;;;;10435339;28;20604;-74
2023/01/13 22:31:30;;;;;;;0.40;0.22;;;;;;;;;;10430285;28;20053;-75
2023/01/13 22:36:33;;;;;;;1.77;0.40;;;;;;;;;;10436722;28;20040;-76
2023/01/13 22:41:36;;;;;;;0.88;0.30;;;;;;;;;;10435062;28;20140;-77
2023/01/13 22:46:39;;;;;;;1.17;0.25;;;;;;;;;;10437348;28;20526;-75
2023/01/13 22:51:42;;;;;;;0.43;0.20;;;;;;;;;;10433702;28;20095;-77
2023/01/13 22:56:46;;;;;;;0.90;0.25;;;;;;;;;;10431042;28;20445;-75
2023/01/13 23:01:48;;;;;;;1.15;0.73;;;;;;;;;;10432449;28;20072;-76
2023/01/13 23:06:51;;;;;;;1.20;0.50;;;;;;;;;;10435144;28;20040;-76
2023/01/13 23:11:55;;;;;;;1.17;0.50;;;;;;;;;;10434036;28;20037;-75
2023/01/13 23:16:57;;;;;;;0.75;0.20;;;;;;;;;;10433819;28;20040;-76
2023/01/13 23:22:00;;;;;;;0.70;0.40;;;;;;;;;;10437813;28;20254;-75
2023/01/13 23:27:04;;;;;;;0.20;0.20;;;;;;;;;;10440412;28;20037;-74
2023/01/13 23:32:06;;;;;;;1.95;0.30;;;;;;;;;;10440024;28;20076;-75
2023/01/13 23:37:09;;;;;;;0.20;0.13;;;;;;;;;;10444727;28;20550;-75
2023/01/13 23:42:13;;;;;;;3.90;0.98;;;;;;;;;;10443642;28;20080;-76
2023/01/13 23:47:16;;;;;;;0.70;0.52;;;;;;;;;;10441445;28;20041;-75
2023/01/13 23:52:18;;;;;;;2.95;0.73;;;;;;;;;;10446520;28;20098;-75
2023/01/13 23:57:22;;;;;;;2.67;1.33;;;;;;;;;;10441182;28;20046;-75
